Terminal Aerodrome Forecast
Issued by NWS

Home | Current Version | Previous Version | Text Only | Print | Product List | Glossary On
Versions: 1 2 3 4 5 6 7 8 9 10 11 12 13 14 15 16 17 18 19 20 21 22 23 24 25 26 27 28 29 30
000
FTUS45 KGGW 050500
TAFOLF
TAF
KOLF 050522Z 0506/0606 VRB06KT 6SM -SHRA BKN080
     FM050800 VRB05KT P6SM SCT090
     FM051200 VRB05KT P6SM SCT200
     FM060400 VRB05KT P6SM VCSH BKN070=

USA.gov is the U.S. government's official web portal to all federal, state and local government web resources and services.